Time;durP1;ratioP1;P1;durP2;ratioP2;P2;SDS_P1;SDS_P2;PMS_P1;PMS_P2;Temp;Humidity;BMP_temperature;BMP_pressure;BME280_temperature;BME280_humidity;BME280_pressure;Samples;Min_cycle;Max_cycle;Signal;HPM_P1;HPM_P2
2022/01/29 00:01:19;;;;;;;;;17.50;13.50;;;;;8.37;69.70;103222.91;5098008;27;45396;-49
2022/01/29 00:03:45;;;;;;;;;19.50;15.50;;;;;8.40;70.47;103228.09;5098391;27;45453;-44
2022/01/29 00:06:10;;;;;;;;;19.00;18.25;;;;;8.39;69.55;103211.31;5097785;27;46488;-49
2022/01/29 00:08:35;;;;;;;;;19.25;17.00;;;;;8.40;69.24;103220.13;5079437;27;45330;-47
2022/01/29 00:11:08;;;;;;;;;23.50;17.00;;;;;8.39;69.72;103210.47;5097676;27;45403;-45
2022/01/29 00:13:34;;;;;;;;;21.50;16.75;;;;;8.38;69.91;103211.38;5097920;27;45309;-43
2022/01/29 00:16:00;;;;;;;;;23.25;16.25;;;;;8.37;69.49;103207.00;5097787;27;45449;-46
2022/01/29 00:18:26;;;;;;;;;19.25;16.75;;;;;8.40;70.61;103214.81;5097534;27;45326;-46
2022/01/29 00:20:51;;;;;;;;;21.50;17.75;;;;;8.39;70.08;103208.66;5097671;27;45310;-45
2022/01/29 00:23:17;;;;;;;;;18.25;15.75;;;;;8.36;69.41;103192.84;5098074;27;45455;-43
2022/01/29 00:25:42;;;;;;;;;10.00;10.00;;;;;8.40;70.22;103198.91;5097583;27;45406;-44
2022/01/29 00:28:07;;;;;;;;;24.25;20.00;;;;;8.38;69.91;103187.50;5097340;27;45323;-45
2022/01/29 00:30:39;;;;;;;;;20.25;18.00;;;;;8.36;69.64;103184.03;5097511;27;45280;-44
2022/01/29 00:33:05;;;;;;;;;26.25;18.00;;;;;8.35;69.47;103180.53;5097861;27;45347;-46
2022/01/29 00:35:30;;;;;;;;;19.75;18.00;;;;;8.37;69.42;103184.00;5097385;27;46138;-46
2022/01/29 00:37:55;;;;;;;;;21.33;15.33;;;;;8.36;69.58;103176.94;5097222;27;45313;-47
2022/01/29 00:40:22;;;;;;;;;16.67;16.67;;;;;8.35;70.09;103161.97;5097524;27;45340;-45
2022/01/29 00:42:48;;;;;;;;;23.25;18.50;;;;;8.35;69.62;103163.78;5097323;27;45420;-46
2022/01/29 00:45:14;;;;;;;;;24.75;18.75;;;;;8.35;69.83;103163.78;5097307;27;47301;-46
2022/01/29 00:47:40;;;;;;;;;19.75;15.75;;;;;8.34;68.92;103167.31;5097189;27;45219;-44
2022/01/29 00:50:06;;;;;;;;;24.25;16.50;;;;;8.33;69.05;103153.22;5097227;27;45339;-45
2022/01/29 00:52:31;;;;;;;;;21.00;15.00;;;;;8.35;69.85;103155.81;5098376;27;45387;-44
2022/01/29 00:54:57;;;;;;;;;21.75;19.75;;;;;8.36;69.86;103152.22;5100766;27;45438;-44
2022/01/29 00:57:23;;;;;;;;;17.75;17.25;;;;;8.33;70.27;103149.69;5100749;27;45880;-45
2022/01/29 00:59:49;;;;;;;;;25.75;17.50;;;;;8.35;69.65;103153.16;5100934;27;45298;-44
2022/01/29 01:02:14;;;;;;;;;22.00;18.25;;;;;8.38;69.71;103153.88;5100894;27;45252;-46
2022/01/29 01:04:40;;;;;;;;;24.67;16.33;;;;;8.39;69.79;103152.13;5100683;27;45703;-45
2022/01/29 01:07:07;;;;;;;;;18.50;15.00;;;;;8.39;69.64;103142.38;5082432;27;45323;-43
2022/01/29 01:09:33;;;;;;;;;15.00;13.00;;;;;8.40;69.22;103140.56;5101591;27;45393;-46
2022/01/29 01:11:58;;;;;;;;;20.00;16.00;;;;;8.38;69.77;103132.66;5104183;27;45148;-49
2022/01/29 01:14:24;;;;;;;;;22.00;18.00;;;;;8.38;70.01;103137.09;5103615;27;46298;-46
2022/01/29 01:16:49;;;;;;;;;18.50;14.00;;;;;8.37;70.08;103138.91;5104627;27;45243;-46
2022/01/29 01:19:14;;;;;;;;;22.67;16.00;;;;;8.39;70.09;103146.81;5103178;27;45355;-45
2022/01/29 01:21:40;;;;;;;;;17.00;13.00;;;;;8.38;70.28;103143.28;5101367;27;45247;-45
2022/01/29 01:24:05;;;;;;;;;17.67;14.67;;;;;8.37;70.55;103144.22;5101851;27;45419;-46
2022/01/29 01:26:31;;;;;;;;;20.33;15.00;;;;;8.35;70.29;103137.25;5100873;27;45399;-47
2022/01/29 01:28:57;;;;;;;;;22.50;17.25;;;;;8.37;71.79;103138.91;5100722;27;45342;-43
2022/01/29 01:31:22;;;;;;;;;19.67;16.33;;;;;8.38;71.31;103142.41;5101088;27;45295;-43
2022/01/29 01:33:48;;;;;;;;;20.00;16.33;;;;;8.38;71.10;103145.91;5100439;27;46939;-43
2022/01/29 01:36:17;;;;;;;;;24.75;17.00;;;;;8.34;71.71;103132.84;5100358;27;45320;-45
2022/01/29 01:38:48;;;;;;;;;23.67;18.67;;;;;8.34;71.05;103140.81;5100413;27;45285;-43
2022/01/29 01:41:20;;;;;;;;;21.67;13.67;;;;;8.34;72.57;103133.72;5100028;27;45466;-43
2022/01/29 01:43:45;;;;;;;;;18.00;15.25;;;;;8.33;72.68;103144.41;5099964;27;45291;-45
2022/01/29 01:46:10;;;;;;;;;16.67;12.00;;;;;8.35;71.85;103147.84;5100072;27;45203;-42
2022/01/29 01:48:36;;;;;;;;;19.00;16.00;;;;;8.33;72.70;103150.56;5099987;27;45767;-44
2022/01/29 01:51:01;;;;;;;;;19.67;15.00;;;;;8.33;72.45;103136.44;5100366;27;45311;-44
2022/01/29 01:53:27;;;;;;;;;18.33;12.33;;;;;8.31;72.13;103131.22;5099682;27;46089;-45
2022/01/29 01:55:52;;;;;;;;;24.67;19.00;;;;;8.29;72.42;103133.06;5099914;27;45252;-45
2022/01/29 01:58:18;;;;;;;;;23.33;15.67;;;;;8.29;72.43;103133.06;5099816;27;45392;-46
2022/01/29 02:00:43;;;;;;;;;19.67;13.33;;;;;8.22;72.87;103126.38;5099922;27;45491;-44
2022/01/29 02:03:10;;;;;;;;;25.00;14.00;;;;;8.27;73.26;103132.31;5098067;27;46404;-43
2022/01/29 02:05:35;;;;;;;;;23.75;16.00;;;;;8.28;73.04;103128.72;5099664;27;45463;-52
2022/01/29 02:08:02;;;;;;;;;17.67;13.33;;;;;8.27;73.87;103127.00;5099788;27;45388;-48
2022/01/29 02:10:28;;;;;;;;;15.25;13.00;;;;;8.25;73.31;103123.53;5098641;27;45578;-45
2022/01/29 02:12:58;;;;;;;;;20.33;14.00;;;;;8.26;73.66;103112.03;5099223;27;46078;-49
2022/01/29 02:15:24;;;;;;;;;21.33;18.00;;;;;8.27;73.25;103110.22;5099416;27;45505;-43
2022/01/29 02:17:50;;;;;;;;;23.00;13.67;;;;;8.26;74.18;103112.03;5098224;27;45445;-44
2022/01/29 02:20:21;;;;;;;;;19.33;15.67;;;;;8.25;73.48;103104.97;5099487;27;45359;-47
2022/01/29 02:22:47;;;;;;;;;19.00;13.00;;;;;8.24;72.96;103104.13;5099306;27;45233;-44
2022/01/29 02:25:29;;;;;;;;;20.33;14.33;;;;;8.28;73.20;103098.69;5099292;27;45203;-44
2022/01/29 02:27:57;;;;;;;;;20.00;13.33;;;;;8.27;73.53;103089.88;5099317;27;45478;-45
2022/01/29 02:30:23;;;;;;;;;15.67;12.67;;;;;8.27;73.16;103089.88;5099574;27;45311;-46
2022/01/29 02:32:48;;;;;;;;;21.00;17.50;;;;;8.26;73.53;103085.50;5098981;27;46150;-44
2022/01/29 02:35:14;;;;;;;;;18.00;15.67;;;;;8.25;73.41;103087.28;5099167;27;45462;-45
2022/01/29 02:37:39;;;;;;;;;20.50;17.75;;;;;8.27;73.65;103087.22;5099270;27;45440;-44
2022/01/29 02:40:06;;;;;;;;;18.67;13.67;;;;;8.26;73.97;103080.22;5099497;27;45465;-49
2022/01/29 02:42:31;;;;;;;;;17.00;14.00;;;;;8.26;72.85;103074.91;5099105;27;46270;-45
2022/01/29 02:44:56;;;;;;;;;19.00;15.00;;;;;8.25;72.90;103073.16;5099326;27;45310;-44
2022/01/29 02:47:31;;;;;;;;;18.67;15.00;;;;;8.25;73.74;103062.56;5099555;27;45361;-45
2022/01/29 02:49:57;;;;;;;;;20.00;12.67;;;;;8.23;73.74;103062.66;5099678;27;45298;-44
2022/01/29 02:52:22;;;;;;;;;20.33;13.00;;;;;8.17;73.26;103044.38;5099083;27;47357;-44
2022/01/29 02:54:48;;;;;;;;;18.00;15.33;;;;;8.25;74.29;103060.75;5080800;27;45332;-44
2022/01/29 02:57:14;;;;;;;;;20.67;15.33;;;;;8.22;73.39;103039.72;5099497;27;45323;-43
2022/01/29 02:59:39;;;;;;;;;18.00;12.67;;;;;8.25;74.10;103047.50;5099227;27;45437;-45
2022/01/29 03:02:05;;;;;;;;;14.67;10.33;;;;;8.25;73.96;103039.53;5098987;27;45232;-44
2022/01/29 03:04:30;;;;;;;;;19.67;15.00;;;;;8.24;73.11;103037.84;5099069;27;45284;-43
2022/01/29 03:06:55;;;;;;;;;15.00;13.00;;;;;8.28;73.85;103040.34;5099245;27;45259;-44
2022/01/29 03:09:21;;;;;;;;;21.00;16.50;;;;;8.25;73.45;103039.53;5099100;27;45239;-45
2022/01/29 03:11:46;;;;;;;;;19.75;17.75;;;;;8.20;74.12;103028.31;5098689;27;45382;-43
2022/01/29 03:14:12;;;;;;;;;16.00;16.00;;;;;8.27;73.87;103030.69;5098775;27;45405;-43
2022/01/29 03:16:37;;;;;;;;;15.67;12.00;;;;;8.26;73.11;103029.81;5098405;27;45206;-44
2022/01/29 03:19:03;;;;;;;;;18.00;15.50;;;;;8.25;73.54;103023.63;5099048;27;45470;-43
2022/01/29 03:21:28;;;;;;;;;12.00;9.50;;;;;8.25;74.20;103026.28;5098799;27;45359;-45
2022/01/29 03:23:53;;;;;;;;;19.00;14.50;;;;;8.23;74.43;103022.88;5098888;27;45419;-45
2022/01/29 03:26:19;;;;;;;;;15.67;12.33;;;;;8.22;74.62;103022.97;5098907;27;45347;-44
2022/01/29 03:28:45;;;;;;;;;14.33;12.33;;;;;8.23;73.38;103020.22;5098678;27;45437;-44
2022/01/29 03:31:11;;;;;;;;;12.00;10.00;;;;;8.24;73.75;103016.63;5098484;27;46292;-45
2022/01/29 03:33:36;;;;;;;;;13.33;13.00;;;;;8.25;74.46;103028.09;5099034;27;45358;-44
2022/01/29 03:36:02;;;;;;;;;17.50;12.25;;;;;8.24;73.51;103018.41;5098819;27;45315;-43
2022/01/29 03:38:27;;;;;;;;;9.00;3.33;;;;;8.28;73.73;103024.44;5099024;27;45405;-46
2022/01/29 03:40:55;;;;;;;;;17.50;12.50;;;;;8.29;74.36;103026.16;5097988;27;46039;-44
2022/01/29 03:43:28;;;;;;;;;10.67;10.00;;;;;8.31;74.68;103029.59;5096873;27;45369;-45
2022/01/29 03:45:54;;;;;;;;;19.00;12.33;;;;;8.31;73.99;103027.81;5097291;27;45292;-41
2022/01/29 03:48:19;;;;;;;;;16.67;11.33;;;;;8.31;74.58;103030.44;5096834;27;45354;-44
2022/01/29 03:50:44;;;;;;;;;19.67;13.00;;;;;8.29;74.00;103032.31;5096818;27;46138;-42
2022/01/29 03:53:10;;;;;;;;;10.67;9.67;;;;;8.32;75.20;103031.31;5096923;27;45469;-43
2022/01/29 03:55:35;;;;;;;;;17.00;13.50;;;;;8.33;73.87;103030.38;5096911;27;45394;-43
2022/01/29 03:58:00;;;;;;;;;7.00;7.00;;;;;8.32;75.11;103023.34;5097315;27;45473;-45
2022/01/29 04:00:26;;;;;;;;;14.25;14.00;;;;;8.31;74.53;103022.50;5096711;27;45272;-42
2022/01/29 04:02:51;;;;;;;;;16.33;13.67;;;;;8.34;75.10;103026.78;5096549;27;45324;-44
2022/01/29 04:05:17;;;;;;;;;16.00;13.50;;;;;8.34;74.30;103030.28;5096927;27;45789;-42
2022/01/29 04:07:43;;;;;;;;;18.67;14.67;;;;;8.23;75.29;103009.63;5097004;27;45199;-43
2022/01/29 04:10:08;;;;;;;;;18.67;14.33;;;;;8.34;74.61;103026.78;5096361;27;46935;-44
2022/01/29 04:12:40;;;;;;;;;14.00;10.00;;;;;8.32;74.09;103033.97;5096556;27;45372;-44
2022/01/29 04:15:06;;;;;;;;;11.33;11.33;;;;;8.32;74.42;103015.41;5096478;27;45172;-45
2022/01/29 04:17:32;;;;;;;;;24.67;15.33;;;;;8.32;75.05;103016.25;5096480;27;45325;-46
2022/01/29 04:19:57;;;;;;;;;24.33;16.67;;;;;8.34;75.27;103018.81;5096340;27;45546;-44
2022/01/29 04:22:22;;;;;;;;;19.00;14.75;;;;;8.32;75.41;103012.75;5096478;27;45234;-44
2022/01/29 04:24:48;;;;;;;;;10.67;10.67;;;;;8.32;74.64;103004.78;5096511;27;45235;-45
2022/01/29 04:27:20;;;;;;;;;19.00;15.33;;;;;8.28;74.53;103004.06;5095620;27;45349;-43
2022/01/29 04:29:57;;;;;;;;;11.00;11.00;;;;;8.26;75.33;103008.63;5096104;27;46052;-42
2022/01/29 04:32:56;;;;;;;;;20.00;14.00;;;;;8.29;74.60;103011.09;5096436;27;45264;-44
2022/01/29 04:35:14;;;;;;;;;13.67;12.67;;;;;8.31;75.11;103014.53;5095833;27;45535;-50
2022/01/29 04:37:39;;;;;;;;;19.67;13.00;;;;;8.34;75.16;103024.97;5096245;27;45421;-44
2022/01/29 04:40:06;;;;;;;;;23.67;13.67;;;;;8.27;75.64;102998.88;5096101;27;46199;-43
2022/01/29 04:42:31;;;;;;;;;16.75;14.00;;;;;8.36;75.62;103024.91;5055978;27;1142349;-43
2022/01/29 04:44:57;;;;;;;;;21.00;15.33;;;;;8.38;75.42;103020.41;5097548;27;45342;-50
2022/01/29 04:47:22;;;;;;;;;18.00;13.00;;;;;8.35;75.26;103007.28;5096767;27;45527;-45
2022/01/29 04:49:47;;;;;;;;;19.00;15.67;;;;;8.34;76.20;102994.94;5105643;27;45238;-44
2022/01/29 04:52:13;;;;;;;;;16.50;13.50;;;;;8.38;75.75;103008.00;5106239;27;45203;-44
2022/01/29 04:54:38;;;;;;;;;14.33;13.00;;;;;8.40;75.98;103014.09;5105807;27;44904;-44
2022/01/29 04:57:04;;;;;;;;;21.00;15.33;;;;;8.40;75.57;103003.50;5099868;27;45359;-51
2022/01/29 04:59:29;;;;;;;;;22.00;12.33;;;;;8.39;75.96;103000.94;5097853;27;46282;-47
2022/01/29 05:01:54;;;;;;;;;23.00;15.67;;;;;8.39;76.01;103006.25;5097477;27;45266;-49
2022/01/29 05:04:20;;;;;;;;;20.33;15.33;;;;;8.41;76.08;103007.00;5078838;27;45455;-43
2022/01/29 05:06:45;;;;;;;;;13.67;12.67;;;;;8.40;75.69;103005.28;5097633;27;45419;-45
2022/01/29 05:09:10;;;;;;;;;19.33;15.67;;;;;8.40;75.32;102994.69;5097208;27;46372;-44
2022/01/29 05:11:36;;;;;;;;;14.33;10.00;;;;;8.40;76.07;102995.53;5079289;27;45484;-42
2022/01/29 05:14:05;;;;;;;;;20.00;11.00;;;;;8.43;75.70;102999.84;5096922;27;45369;-45
2022/01/29 05:27:08;;;;;;;;;19.33;14.67;;;;;8.54;76.01;103000.13;5097364;27;45418;-45
2022/01/29 05:29:36;;;;;;;;;11.67;10.33;;;;;8.55;75.85;103011.59;5078386;27;46030;-45
2022/01/29 05:32:05;;;;;;;;;13.00;12.33;;;;;8.57;75.83;103001.78;5078502;27;45356;-43
2022/01/29 05:34:30;;;;;;;;;15.67;14.33;;;;;8.58;76.21;103004.34;5097004;27;45607;-46
2022/01/29 05:36:56;;;;;;;;;15.67;14.00;;;;;8.56;76.50;103000.94;5097123;27;45391;-44
2022/01/29 05:39:22;;;;;;;;;15.67;10.67;;;;;8.63;76.29;103004.97;5099069;27;46097;-43
2022/01/29 05:41:47;;;;;;;;;18.00;11.00;;;;;8.65;75.89;102999.59;5100355;27;45255;-45
2022/01/29 05:44:13;;;;;;;;;22.00;17.00;;;;;8.65;75.94;102994.31;5100420;27;45412;-44
2022/01/29 05:46:41;;;;;;;;;12.00;12.00;;;;;8.65;75.77;102987.19;5100331;27;45484;-43
2022/01/29 05:49:06;;;;;;;;;24.67;13.00;;;;;8.70;75.85;102986.94;5100135;27;46226;-44
2022/01/29 05:51:32;;;;;;;;;15.00;13.00;;;;;8.70;76.16;102987.81;5081750;27;45446;-42
2022/01/29 05:53:58;;;;;;;;;15.33;14.00;;;;;8.72;76.04;102990.38;5100342;27;45374;-44
2022/01/29 05:56:24;;;;;;;;;14.33;14.33;;;;;8.69;75.89;102979.94;5100608;27;45452;-43
2022/01/29 05:58:50;;;;;;;;;13.00;11.00;;;;;8.73;76.23;102981.50;5100203;27;45464;-47
2022/01/29 06:01:15;;;;;;;;;20.33;13.67;;;;;8.70;75.77;102977.19;5100517;27;45303;-49
2022/01/29 06:03:40;;;;;;;;;14.33;11.00;;;;;8.77;76.35;102987.50;5100468;27;45518;-41
2022/01/29 06:06:06;;;;;;;;;17.67;13.00;;;;;8.74;76.09;102981.41;5100682;27;45316;-42
2022/01/29 06:08:31;;;;;;;;;14.67;14.33;;;;;8.79;75.84;102981.16;5082022;27;45359;-48
2022/01/29 06:10:57;;;;;;;;;20.67;10.00;;;;;8.77;75.61;102976.88;5100074;27;45386;-47
2022/01/29 06:13:22;;;;;;;;;18.67;13.33;;;;;8.81;76.51;102994.38;5100367;27;45327;-47
2022/01/29 06:15:49;;;;;;;;;10.33;10.00;;;;;8.78;76.20;102987.41;5100104;27;45422;-43
2022/01/29 06:18:19;;;;;;;;;12.67;10.00;;;;;8.80;76.43;102982.88;5099869;27;45289;-43
2022/01/29 06:20:47;;;;;;;;;16.67;12.67;;;;;8.82;76.00;102990.78;5099920;27;45479;-46
2022/01/29 06:23:14;;;;;;;;;17.00;13.00;;;;;8.77;76.42;102979.53;5100115;27;45521;-43
2022/01/29 06:25:40;;;;;;;;;14.33;11.33;;;;;8.85;75.97;102987.94;5100305;27;45232;-44
2022/01/29 06:28:06;;;;;;;;;17.33;12.33;;;;;8.85;76.20;102987.94;5099517;27;45244;-44
2022/01/29 06:30:31;;;;;;;;;18.00;13.33;;;;;8.84;76.27;102986.22;5099598;27;45575;-42
2022/01/29 06:33:04;;;;;;;;;11.00;10.00;;;;;8.85;75.78;102994.13;5100362;27;45412;-43
2022/01/29 06:35:30;;;;;;;;;14.00;10.67;;;;;8.83;76.35;102989.81;5100293;27;45254;-45
2022/01/29 06:37:55;;;;;;;;;16.67;13.33;;;;;8.86;76.53;102984.38;5099298;27;46020;-44
2022/01/29 06:40:21;;;;;;;;;11.33;10.67;;;;;8.88;76.45;102990.44;5099688;27;45156;-43
2022/01/29 06:42:46;;;;;;;;;14.00;11.00;;;;;8.89;76.39;102990.38;5099250;27;45552;-43
2022/01/29 06:45:11;;;;;;;;;14.67;14.67;;;;;8.89;76.55;102981.53;5099628;27;45372;-42
2022/01/29 06:47:37;;;;;;;;;15.00;11.00;;;;;8.89;75.87;102984.19;5099315;27;46000;-43
2022/01/29 06:50:02;;;;;;;;;11.67;11.67;;;;;8.90;76.48;102984.13;5098138;27;45211;-46
2022/01/29 06:52:28;;;;;;;;;13.67;10.67;;;;;8.91;76.33;102987.63;5100109;27;45237;-50
2022/01/29 06:54:53;;;;;;;;;18.67;10.00;;;;;8.91;76.07;102983.16;5099674;27;45388;-46
2022/01/29 06:57:18;;;;;;;;;17.00;12.33;;;;;8.93;76.66;102976.00;5099493;27;46571;-42
2022/01/29 06:59:44;;;;;;;;;16.33;14.00;;;;;8.94;76.55;102980.38;5099680;27;45305;-43
2022/01/29 07:02:09;;;;;;;;;19.67;14.00;;;;;8.94;76.19;102976.84;5099275;27;45333;-43
2022/01/29 07:04:34;;;;;;;;;16.67;14.00;;;;;8.95;76.48;102986.53;5099433;27;45503;-44
2022/01/29 07:07:00;;;;;;;;;18.33;11.00;;;;;8.94;76.80;102972.41;5098938;27;46169;-46
2022/01/29 07:09:26;;;;;;;;;11.67;10.33;;;;;8.97;76.68;102982.88;5099434;27;45393;-48
2022/01/29 07:11:56;;;;;;;;;19.33;13.67;;;;;8.97;75.99;102988.19;5099571;27;45334;-45
2022/01/29 07:14:22;;;;;;;;;13.00;11.67;;;;;8.97;76.70;102980.22;5099848;27;45516;-45
2022/01/29 07:16:47;;;;;;;;;13.33;9.67;;;;;8.99;76.76;102982.78;5098824;27;46018;-47
2022/01/29 07:19:13;;;;;;;;;13.00;10.00;;;;;9.00;76.52;102976.50;5099130;27;45204;-46
2022/01/29 07:21:38;;;;;;;;;15.67;11.00;;;;;9.03;75.98;102972.84;5099022;27;45388;-43
2022/01/29 07:24:04;;;;;;;;;13.33;10.33;;;;;9.04;76.69;102966.59;5099447;27;45403;-45
2022/01/29 07:26:30;;;;;;;;;15.33;13.00;;;;;9.04;76.42;102971.91;5098914;27;46015;-44
2022/01/29 07:28:55;;;;;;;;;15.67;13.00;;;;;9.05;76.87;102960.34;5098800;27;45330;-43
2022/01/29 07:31:21;;;;;;;;;19.00;12.67;;;;;9.00;76.17;102952.63;5099055;27;45529;-43
2022/01/29 07:33:47;;;;;;;;;17.00;14.00;;;;;9.08;76.04;102957.53;5100220;27;45479;-45
2022/01/29 07:36:12;;;;;;;;;10.67;10.67;;;;;9.06;76.66;102962.94;5099711;27;46330;-44
2022/01/29 07:38:37;;;;;;;;;17.00;11.33;;;;;9.12;76.22;102967.03;5099038;27;45369;-42
2022/01/29 07:41:03;;;;;;;;;14.00;9.67;;;;;9.12;75.97;102962.59;5098907;27;45422;-45
2022/01/29 07:43:28;;;;;;;;;12.67;10.00;;;;;9.12;76.53;102959.94;5099134;27;45567;-45
2022/01/29 07:45:54;;;;;;;;;13.00;10.00;;;;;9.12;75.85;102967.03;5098436;27;46364;-45
2022/01/29 07:48:19;;;;;;;;;10.33;10.33;;;;;9.18;76.30;102970.19;5098459;27;45464;-43
2022/01/29 07:50:45;;;;;;;;;10.33;10.33;;;;;9.22;75.96;102977.06;5098491;27;45441;-42
2022/01/29 07:53:11;;;;;;;;;14.00;10.00;;;;;9.25;76.33;102965.44;5098987;27;45271;-43
2022/01/29 07:55:37;;;;;;;;;11.00;9.33;;;;;9.26;75.83;102977.75;5098310;27;46155;-44
2022/01/29 07:58:05;;;;;;;;;17.33;11.33;;;;;9.30;75.94;102970.50;5098373;27;45318;-45
2022/01/29 08:00:30;;;;;;;;;14.00;11.67;;;;;9.29;76.26;102955.50;5098229;27;45384;-44
2022/01/29 08:02:56;;;;;;;;;14.67;7.00;;;;;9.31;76.00;102962.41;5097983;27;45387;-44
2022/01/29 08:05:21;;;;;;;;;9.00;6.00;;;;;9.38;76.29;102965.63;5098160;27;46187;-49
2022/01/29 08:07:47;;;;;;;;;6.33;5.33;;;;;9.43;75.68;102964.41;5098196;27;45296;-42
2022/01/29 08:10:12;;;;;;;;;9.67;9.33;;;;;9.49;76.16;102968.53;5098280;27;45421;-43
2022/01/29 08:12:38;;;;;;;;;9.33;7.67;;;;;9.52;75.98;102965.69;5098359;27;45400;-43
2022/01/29 08:15:05;;;;;;;;;11.00;7.00;;;;;9.55;75.32;102965.53;5097745;27;46082;-44
2022/01/29 08:17:30;;;;;;;;;11.67;10.00;;;;;9.58;75.49;102965.38;5097844;27;45334;-47
2022/01/29 08:19:57;;;;;;;;;11.00;8.33;;;;;9.63;75.39;102963.31;5098043;27;45452;-43
2022/01/29 08:22:24;;;;;;;;;8.33;6.67;;;;;9.65;75.64;102953.47;5098751;27;45257;-45
2022/01/29 08:24:50;;;;;;;;;10.00;6.00;;;;;9.72;75.43;102956.59;5100701;27;46157;-43
2022/01/29 08:27:16;;;;;;;;;10.33;6.00;;;;;9.80;75.05;102949.06;5099679;27;45445;-46
2022/01/29 08:29:41;;;;;;;;;10.00;7.33;;;;;9.80;75.20;102954.38;5102440;27;45327;-46
2022/01/29 08:32:07;;;;;;;;;10.67;9.67;;;;;9.82;75.32;102956.94;5103797;27;45303;-45
2022/01/29 08:34:32;;;;;;;;;7.00;5.67;;;;;9.83;75.07;102956.00;5100865;27;46554;-45
2022/01/29 08:37:01;;;;;;;;;9.00;6.67;;;;;9.86;75.13;102966.44;5097201;27;45435;-45
2022/01/29 08:39:26;;;;;;;;;6.00;5.00;;;;;9.89;75.07;102960.97;5090958;27;45277;-44
2022/01/29 08:41:52;;;;;;;;;7.00;5.00;;;;;9.93;75.11;102960.69;5097685;27;45248;-44
2022/01/29 08:44:17;;;;;;;;;5.67;5.00;;;;;9.93;75.08;102960.69;5078914;27;46647;-44
2022/01/29 08:46:43;;;;;;;;;5.33;5.00;;;;;9.97;75.21;102967.56;5097291;27;45307;-49
2022/01/29 08:49:08;;;;;;;;;3.00;3.00;;;;;9.96;75.16;102965.00;5097533;27;45406;-43
2022/01/29 08:51:34;;;;;;;;;9.00;6.00;;;;;9.97;75.10;102961.38;5097841;27;45171;-54
2022/01/29 08:53:59;;;;;;;;;6.67;5.00;;;;;9.94;75.20;102945.59;5096809;27;46350;-44
2022/01/29 08:56:25;;;;;;;;;3.00;3.00;;;;;10.03;75.36;102952.19;5097336;27;45406;-44
2022/01/29 08:58:50;;;;;;;;;3.00;3.00;;;;;10.07;74.99;102943.09;5097292;27;46001;-45
2022/01/29 09:01:16;;;;;;;;;3.00;3.00;;;;;10.11;75.22;102957.91;5097479;27;45350;-44
2022/01/29 09:03:41;;;;;;;;;5.00;3.00;;;;;10.11;75.00;102953.47;5097098;27;46282;-47
2022/01/29 09:06:06;;;;;;;;;4.33;3.00;;;;;10.15;75.08;102944.34;5097199;27;45362;-45
2022/01/29 09:08:32;;;;;;;;;6.00;5.00;;;;;10.11;74.58;102936.63;5097428;27;45267;-45
2022/01/29 09:10:58;;;;;;;;;2.00;2.00;;;;;10.22;74.41;102950.19;5097511;27;45525;-49
2022/01/29 09:13:25;;;;;;;;;2.67;1.00;;;;;10.18;74.29;102944.19;5098111;27;46377;-44
2022/01/29 09:15:50;;;;;;;;;1.33;1.33;;;;;10.29;74.77;102948.06;5101640;27;45322;-45
2022/01/29 09:18:16;;;;;;;;;2.00;2.00;;;;;10.32;74.51;102942.53;5101034;27;45628;-48
2022/01/29 09:20:41;;;;;;;;;4.33;3.00;;;;;10.36;74.46;102950.22;5101480;27;45214;-46
2022/01/29 09:23:08;;;;;;;;;2.00;2.00;;;;;10.39;74.32;102941.22;5100527;27;46094;-43
2022/01/29 09:25:36;;;;;;;;;1.00;1.00;;;;;10.40;74.34;102942.94;5100743;27;45237;-57
2022/01/29 09:28:03;;;;;;;;;3.00;2.00;;;;;10.44;74.32;102940.00;5100524;27;45482;-53
2022/01/29 09:30:28;;;;;;;;;5.00;2.00;;;;;10.41;74.20;102929.56;5100520;27;45333;-50
2022/01/29 09:32:54;;;;;;;;;6.00;2.00;;;;;10.48;74.04;102938.00;5100110;27;47031;-48
2022/01/29 09:35:19;;;;;;;;;3.00;1.33;;;;;10.62;73.81;102943.38;5100587;27;45427;-43
2022/01/29 09:37:45;;;;;;;;;3.00;2.00;;;;;10.69;74.02;102935.84;5100872;27;45688;-45
2022/01/29 09:40:11;;;;;;;;;3.00;0.00;;;;;10.78;73.27;102926.44;5100806;27;45244;-44
2022/01/29 09:42:37;;;;;;;;;3.00;1.33;;;;;10.89;73.19;102927.50;5100333;27;47639;-43
2022/01/29 09:45:03;;;;;;;;;3.00;2.33;;;;;11.02;72.86;102926.72;5100332;27;45237;-43
2022/01/29 09:47:29;;;;;;;;;3.00;1.00;;;;;11.10;72.26;102925.28;5100694;27;45313;-43
2022/01/29 09:49:56;;;;;;;;;1.00;1.00;;;;;11.10;72.18;102909.31;5100764;27;45397;-45
2022/01/29 09:52:22;;;;;;;;;1.00;1.00;;;;;11.12;71.85;102928.69;5100479;27;46151;-41
2022/01/29 09:54:49;;;;;;;;;3.00;2.00;;;;;11.07;72.21;102927.28;5100456;27;45389;-42
2022/01/29 09:57:15;;;;;;;;;2.33;2.33;;;;;11.07;72.01;102932.63;5099701;27;45359;-45
2022/01/29 09:59:41;;;;;;;;;2.00;2.00;;;;;11.08;72.28;102932.53;5100823;27;45253;-43
2022/01/29 10:02:17;;;;;;;;;6.00;2.00;;;;;11.08;72.13;102929.88;5100336;27;46108;-44
2022/01/29 10:04:52;;;;;;;;;5.00;5.00;;;;;11.05;72.29;102938.06;5100336;27;45288;-43
2022/01/29 10:07:29;;;;;;;;;1.67;1.00;;;;;11.04;72.16;102944.34;5081771;27;45373;-54
2022/01/29 10:09:56;;;;;;;;;3.00;1.33;;;;;10.98;72.31;102945.56;5099852;27;45474;-44
2022/01/29 10:12:27;;;;;;;;;4.67;4.67;;;;;10.94;72.67;102948.50;5100173;27;45317;-49
2022/01/29 10:14:57;;;;;;;;;5.00;5.00;;;;;10.94;72.86;102953.84;5099511;27;45384;-43
2022/01/29 10:17:41;;;;;;;;;6.33;3.00;;;;;10.93;72.62;102946.81;5081510;27;45240;-44
2022/01/29 10:20:20;;;;;;;;;6.33;2.00;;;;;10.96;72.85;102950.13;5099960;27;45387;-46
2022/01/29 10:22:49;;;;;;;;;5.00;2.67;;;;;11.00;72.75;102948.16;5099643;27;46211;-44
2022/01/29 10:25:32;;;;;;;;;3.33;3.00;;;;;11.02;72.78;102950.69;5099778;27;45514;-46
2022/01/29 10:28:18;;;;;;;;;3.00;2.67;;;;;11.11;72.60;102956.31;5099879;27;45323;-44
2022/01/29 10:30:49;;;;;;;;;2.33;2.33;;;;;11.09;72.64;102947.56;5099806;27;45378;-50
2022/01/29 10:33:19;;;;;;;;;3.00;3.00;;;;;11.07;72.98;102945.94;5099278;27;47189;-43
2022/01/29 10:35:47;;;;;;;;;5.00;3.00;;;;;11.01;72.69;102941.88;5099785;27;45453;-52
2022/01/29 10:38:12;;;;;;;;;5.00;2.67;;;;;10.91;72.43;102924.72;5099758;27;45400;-46
2022/01/29 10:40:38;;;;;;;;;2.00;2.00;;;;;11.02;72.98;102940.91;5099600;27;45432;-49
2022/01/29 10:43:05;;;;;;;;;3.00;2.00;;;;;10.96;72.93;102928.84;5099660;27;45462;-44
2022/01/29 10:45:34;;;;;;;;;4.00;3.00;;;;;11.06;73.06;102946.91;5099440;27;45465;-47
2022/01/29 10:47:59;;;;;;;;;4.00;2.00;;;;;11.05;72.91;102943.38;5099370;27;45633;-45
2022/01/29 10:50:26;;;;;;;;;2.00;2.00;;;;;11.07;72.86;102938.78;5099633;27;45370;-50
2022/01/29 10:52:51;;;;;;;;;2.00;2.00;;;;;11.10;72.86;102946.59;5099332;27;45355;-51
2022/01/29 10:55:17;;;;;;;;;3.00;3.00;;;;;11.09;72.75;102942.25;5099434;27;45286;-44
2022/01/29 10:57:47;;;;;;;;;1.33;1.00;;;;;11.10;72.62;102935.94;5099491;27;45263;-45
2022/01/29 11:00:30;;;;;;;;;1.67;1.67;;;;;11.13;72.53;102933.09;5099620;27;45441;-45
2022/01/29 11:02:57;;;;;;;;;3.00;2.00;;;;;11.13;72.56;102935.75;5098887;27;46747;-45
2022/01/29 11:05:26;;;;;;;;;1.67;1.67;;;;;11.18;72.36;102946.13;5099214;27;45382;-45
2022/01/29 11:07:54;;;;;;;;;2.67;2.67;;;;;11.20;72.61;102944.22;5099224;27;45384;-44
2022/01/29 11:10:20;;;;;;;;;3.00;3.00;;;;;11.13;72.33;102935.75;5099264;27;45441;-46
2022/01/29 11:12:48;;;;;;;;;4.33;2.33;;;;;11.17;72.54;102937.28;5098987;27;47091;-44
2022/01/29 11:15:18;;;;;;;;;1.67;1.67;;;;;11.21;72.35;102938.81;5098953;27;45340;-47
2022/01/29 11:17:44;;;;;;;;;2.33;2.33;;;;;11.22;72.41;102940.50;5099346;27;45417;-45
2022/01/29 11:20:10;;;;;;;;;1.33;1.33;;;;;11.24;72.16;102935.06;5099053;27;45301;-49
2022/01/29 11:22:39;;;;;;;;;1.00;1.00;;;;;11.20;72.02;102938.88;5098784;27;45428;-49
2022/01/29 11:25:08;;;;;;;;;2.67;2.00;;;;;11.25;72.40;102955.47;5098867;27;45218;-50
2022/01/29 11:27:37;;;;;;;;;0.00;0.00;;;;;11.24;72.62;102948.41;5099034;27;45381;-54